Danville Regional Airport
KDAN : now visible

Aeroporto :











RITROVATECI SU...

 
LOGIN :

Iscrizione | Disclaimer

   EN    FR    IT 

 









Sommario :    VFR   VFR Marginale   IFR   IFR Intensivo   IFR Molto Intensivo
Visibilità : 
Base nubi : 
>= 8 km
>= 3000ft
5 / 8 km
1000 / 3000 ft
1500m / 5 km
500 / 1000 ft
800 / 1500m
200 / 500 ft
< 800m
< 200 ft
Simboli :   Temporali  Nebbia  Neve Forte  Precipitazioni Forti  Vento > 20 kt







- Altitudine del aeroporto : 571 ft
- Codice IATA : DAN


KDAN - Danville Regional

ULTIMO METAR :
  • 250953Z AUTO 36003KT 10SM OVC060 18/16 A3015 RMK AO2 SLP202 T01780161

METARs OBSOLETI :
  • 250853Z AUTO 33003KT 10SM OVC060 17/16 A3016 RMK AO2 SLP202 T01720161 56009

TAF KDAN
Valido dal 25 a 06 ore il 26 a 06 ore UTC


250534Z 2506/2606 VRB03KT P6SM OVC060
FM251400 05008KT P6SM SCT090
FM260000 07005KT P6SM BKN050
FM260400 04004KT P6SM BKN080
Nessun NOTAM noto per questo aeroporto.



MetMap, La meteo Aeronautica in un colpo d'occhio ! - Copyright ORBIFLY Dicembre 2007 - Disclaimer

ORBIFLY MET'MAP TEAM :

Programmazione e sviluppo : Alexandra Zaïnal
Concezione e sviluppo : Baudouin d'Aumeries
Co-Programmazione e sviluppo : Marc-Olivier Méhu
Supporto tecnico e logistico : Manuel Goepfert
Aiuto per la traduzione : Arnaldo La Scala

Contatto : metmap@orbifly.com




FONTI E CREDITI :

   NOAA       Earth
Advisory